createdAt,value
2022-08-09T00:00:04.190Z,100381.47
2022-08-09T00:02:37.128Z,100374.63
2022-08-09T00:06:18.099Z,100351.88
2022-08-09T00:07:57.161Z,100374.94
2022-08-09T00:10:28.228Z,100375.06
2022-08-09T00:12:54.951Z,100373.91
2022-08-09T00:15:35.473Z,100385.03
2022-08-09T00:18:11.238Z,100386.94
2022-08-09T00:20:41.502Z,100362.06
2022-08-09T00:23:57.103Z,100383.22
2022-08-09T00:26:04.958Z,100360.81
2022-08-09T00:28:34.752Z,100388.38
2022-08-09T00:31:09.129Z,100356.34
2022-08-09T00:33:54.083Z,100374.13
2022-08-09T00:36:22.304Z,100381.56
2022-08-09T00:38:54.127Z,100380.13
2022-08-09T00:44:10.023Z,100376.47
2022-08-09T00:44:25.114Z,100374.66
2022-08-09T00:46:57.740Z,100377.00
2022-08-09T00:49:31.472Z,100371.53
2022-08-09T00:51:58.939Z,100348.00
2022-08-09T00:54:35.173Z,100372.72
2022-08-09T00:57:10.619Z,100367.56
2022-08-09T00:59:46.405Z,100380.88
2022-08-09T01:02:20.439Z,100374.94
2022-08-09T01:05:14.375Z,100366.97
2022-08-09T01:08:00.209Z,100369.16
2022-08-09T01:10:53.829Z,100369.19
2022-08-09T01:13:23.385Z,100361.75
2022-08-09T01:16:00.992Z,100371.44
2022-08-09T01:18:31.650Z,100383.16
2022-08-09T01:21:14.723Z,100371.75
2022-08-09T01:24:05.768Z,100380.50
2022-08-09T01:26:53.517Z,100377.91
2022-08-09T01:29:41.291Z,100381.84
2022-08-09T01:32:37.748Z,100371.03
2022-08-09T01:35:28.958Z,100380.75
2022-08-09T01:38:08.479Z,100381.75
2022-08-09T01:40:42.903Z,100391.63
2022-08-09T01:43:11.180Z,100382.53
2022-08-09T01:45:44.747Z,100375.72
2022-08-09T01:48:19.451Z,100383.47
2022-08-09T01:50:54.787Z,100374.19
2022-08-09T01:53:23.970Z,100378.44
2022-08-09T01:55:57.852Z,100365.69
2022-08-09T01:58:28.621Z,100356.69
2022-08-09T02:00:58.761Z,100395.84
2022-08-09T02:03:25.802Z,100383.34
2022-08-09T02:06:06.285Z,100394.06
2022-08-09T02:08:57.119Z,100390.00
2022-08-09T02:11:42.649Z,100380.75
2022-08-09T02:14:15.895Z,100402.28
2022-08-09T02:17:14.929Z,100401.63
2022-08-09T02:19:43.804Z,100407.19
2022-08-09T02:22:34.893Z,100410.63
2022-08-09T02:25:07.917Z,100407.41
2022-08-09T02:27:57.638Z,100414.91
2022-08-09T02:30:28.257Z,100409.00
2022-08-09T02:32:57.835Z,100369.09
2022-08-09T02:36:02.664Z,100396.66
2022-08-09T02:38:34.871Z,100410.84
2022-08-09T02:41:08.547Z,100422.41
2022-08-09T02:43:47.812Z,100420.75
2022-08-09T02:46:27.378Z,100391.91
2022-08-09T02:48:58.837Z,100422.59
2022-08-09T02:51:27.998Z,100396.88
2022-08-09T02:54:05.099Z,100404.66
2022-08-09T02:56:33.838Z,100377.06
2022-08-09T02:59:03.886Z,100389.41
2022-08-09T03:01:43.082Z,100409.75
2022-08-09T03:04:20.699Z,100403.88
2022-08-09T03:06:54.243Z,100408.38
2022-08-09T03:09:21.886Z,100400.72
2022-08-09T03:12:05.718Z,100368.31
2022-08-09T03:14:36.632Z,100404.19
2022-08-09T03:17:05.600Z,100391.53
2022-08-09T03:19:59.684Z,100398.75
2022-08-09T03:22:29.879Z,100405.09
2022-08-09T03:25:16.177Z,100384.50
2022-08-09T03:27:50.973Z,100404.31
2022-08-09T03:30:29.946Z,100386.88
2022-08-09T03:33:12.783Z,100407.69
2022-08-09T03:36:12.400Z,100402.97
2022-08-09T03:38:31.186Z,100399.41
2022-08-09T03:40:58.173Z,100417.53
2022-08-09T03:43:31.707Z,100417.34
2022-08-09T03:46:03.949Z,100416.56
2022-08-09T03:48:51.927Z,100416.00
2022-08-09T03:51:57.122Z,100413.72
2022-08-09T03:54:10.976Z,100402.44
2022-08-09T03:56:41.219Z,100411.50
2022-08-09T03:59:17.034Z,100415.25
2022-08-09T04:01:50.094Z,100416.69
2022-08-09T04:04:18.142Z,100419.31
2022-08-09T04:06:49.048Z,100419.53
2022-08-09T04:09:47.780Z,100426.78
2022-08-09T04:12:30.705Z,100403.31
2022-08-09T04:15:02.075Z,100431.13
2022-08-09T04:17:39.508Z,100425.78
2022-08-09T04:20:12.156Z,100434.63
2022-08-09T04:22:41.113Z,100439.16
2022-08-09T04:25:11.646Z,100445.13
2022-08-09T04:27:46.767Z,100451.69
2022-08-09T04:30:20.887Z,100449.78
2022-08-09T04:32:50.170Z,100453.25
2022-08-09T04:35:17.343Z,100454.69
2022-08-09T04:37:49.639Z,100465.75
2022-08-09T04:40:19.548Z,100476.91
2022-08-09T04:42:56.798Z,100458.41
2022-08-09T04:45:23.868Z,100464.22
2022-08-09T04:47:58.835Z,100478.59
2022-08-09T04:50:34.875Z,100480.91
2022-08-09T04:53:11.581Z,100482.75
2022-08-09T04:55:56.084Z,100457.88
2022-08-09T04:58:31.736Z,100486.91
2022-08-09T05:01:00.162Z,100459.31
2022-08-09T05:03:41.108Z,100460.56
2022-08-09T05:06:21.762Z,100473.09
2022-08-09T05:09:00.310Z,100489.16
2022-08-09T05:11:32.481Z,100494.91
2022-08-09T05:14:05.785Z,100473.31
2022-08-09T05:16:58.197Z,100499.66
2022-08-09T05:19:24.486Z,100502.94
2022-08-09T05:21:55.280Z,100457.66
2022-08-09T05:24:24.205Z,100502.91
2022-08-09T05:26:52.350Z,100501.81
2022-08-09T05:29:24.568Z,100489.81
2022-08-09T05:32:00.455Z,100502.97
2022-08-09T05:34:32.526Z,100469.75
2022-08-09T05:37:05.036Z,100509.31
2022-08-09T05:39:43.397Z,100501.81
2022-08-09T05:42:17.914Z,100510.59
2022-08-09T05:44:52.821Z,100518.22
2022-08-09T05:47:21.642Z,100517.59
2022-08-09T05:50:25.254Z,100494.78
2022-08-09T05:52:38.630Z,100515.94
2022-08-09T05:55:07.495Z,100534.88
2022-08-09T05:57:55.511Z,100532.72
2022-08-09T06:00:23.765Z,100530.28
2022-08-09T06:02:54.717Z,100503.06
2022-08-09T06:05:31.273Z,100533.97
2022-08-09T06:08:12.826Z,100503.06
2022-08-09T06:10:39.799Z,100525.78
2022-08-09T06:13:20.301Z,100524.38
2022-08-09T06:15:51.014Z,100533.06
2022-08-09T06:18:25.406Z,100529.75
2022-08-09T06:20:57.766Z,100536.06
2022-08-09T06:23:55.391Z,100530.97
2022-08-09T06:26:22.172Z,100531.47
2022-08-09T06:29:00.854Z,100505.50
2022-08-09T06:31:40.050Z,100540.31
2022-08-09T06:34:20.083Z,100542.50
2022-08-09T06:36:57.479Z,100543.63
2022-08-09T06:39:48.470Z,100530.53
2022-08-09T06:42:14.292Z,100518.72
2022-08-09T06:44:41.210Z,100548.13
2022-08-09T06:47:10.177Z,100550.53
2022-08-09T06:50:12.104Z,100537.63
2022-08-09T06:52:25.229Z,100538.75
2022-08-09T06:54:52.186Z,100521.69
2022-08-09T06:57:25.890Z,100537.69
2022-08-09T07:00:49.067Z,100548.22
2022-08-09T07:02:55.661Z,100536.66
2022-08-09T07:05:24.602Z,100547.72
2022-08-09T07:08:11.422Z,100544.38
2022-08-09T07:10:38.458Z,100541.09
2022-08-09T07:13:27.866Z,100545.44
2022-08-09T07:16:39.610Z,100542.03
2022-08-09T07:18:39.686Z,100541.69
2022-08-09T07:21:07.897Z,100532.34
2022-08-09T07:23:36.227Z,100543.31
2022-08-09T07:26:04.294Z,100541.09
2022-08-09T07:28:34.937Z,100537.94
2022-08-09T07:31:04.927Z,100557.53
2022-08-09T07:33:52.976Z,100524.81
2022-08-09T07:36:19.720Z,100550.13
2022-08-09T07:38:54.998Z,100553.44
2022-08-09T07:41:26.063Z,100531.44
2022-08-09T07:43:56.556Z,100540.19
2022-08-09T07:46:27.618Z,100545.69
2022-08-09T07:48:59.526Z,100538.91
2022-08-09T07:52:03.425Z,100541.06
2022-08-09T07:54:15.774Z,100544.34
2022-08-09T07:57:04.365Z,100544.88
2022-08-09T07:59:50.935Z,100550.81
2022-08-09T08:02:25.409Z,100545.03
2022-08-09T08:04:53.823Z,100513.22
2022-08-09T08:08:42.878Z,100527.59
2022-08-09T08:10:10.891Z,100541.84
2022-08-09T08:12:42.854Z,100553.78
2022-08-09T08:15:13.941Z,100545.56
2022-08-09T08:17:53.410Z,100540.69
2022-08-09T08:20:29.263Z,100545.91
2022-08-09T08:23:01.653Z,100536.06
2022-08-09T08:25:44.616Z,100531.75
2022-08-09T08:28:15.219Z,100547.56
2022-08-09T08:30:44.223Z,100532.44
2022-08-09T08:33:23.071Z,100511.59
2022-08-09T08:36:00.029Z,100552.47
2022-08-09T08:38:29.106Z,100523.47
2022-08-09T08:40:57.724Z,100546.53
2022-08-09T08:43:27.331Z,100541.03
2022-08-09T08:46:04.100Z,100524.34
2022-08-09T08:48:51.443Z,100538.50
2022-08-09T08:51:18.974Z,100518.81
2022-08-09T08:54:03.069Z,100528.31
2022-08-09T08:56:38.798Z,100548.94
2022-08-09T08:59:20.192Z,100528.44
2022-08-09T09:01:57.145Z,100542.22
2022-08-09T09:04:31.962Z,100536.94
2022-08-09T09:07:09.978Z,100552.22
2022-08-09T09:09:58.029Z,100552.38
2022-08-09T09:12:31.245Z,100549.56
2022-08-09T09:15:06.019Z,100546.06
2022-08-09T09:17:49.528Z,100543.78
2022-08-09T09:20:20.645Z,100539.41
2022-08-09T09:23:01.706Z,100527.69
2022-08-09T09:26:03.807Z,100536.47
2022-08-09T09:29:01.762Z,100541.00
2022-08-09T09:31:17.211Z,100543.66
2022-08-09T09:34:14.340Z,100537.09
2022-08-09T09:36:53.136Z,100526.75
2022-08-09T09:39:54.929Z,100529.75
2022-08-09T09:42:25.339Z,100533.16
2022-08-09T09:44:59.957Z,100537.59
2022-08-09T09:47:28.784Z,100535.06
2022-08-09T09:50:16.896Z,100522.72
2022-08-09T09:52:56.382Z,100538.88
2022-08-09T09:55:32.697Z,100524.25
2022-08-09T09:58:18.707Z,100510.59
2022-08-09T10:00:55.305Z,100519.06
2022-08-09T10:04:00.769Z,100508.66
2022-08-09T10:06:38.667Z,100493.06
2022-08-09T10:09:21.808Z,100518.66
2022-08-09T10:12:14.230Z,100505.41
2022-08-09T10:14:49.355Z,100505.28
2022-08-09T10:17:50.322Z,100513.03
2022-08-09T10:20:26.908Z,100505.81
2022-08-09T10:23:22.744Z,100510.69
2022-08-09T10:26:06.687Z,100517.56
2022-08-09T10:28:39.912Z,100498.97
2022-08-09T10:34:10.634Z,100487.94
2022-08-09T10:36:49.838Z,100482.00
2022-08-09T10:39:19.497Z,100484.13
2022-08-09T10:41:47.777Z,100476.03
2022-08-09T10:44:19.070Z,100492.06
2022-08-09T10:47:01.184Z,100486.41
2022-08-09T10:49:51.260Z,100480.59
2022-08-09T10:52:42.800Z,100458.59
2022-08-09T10:55:49.186Z,100482.44
2022-08-09T10:58:34.966Z,100471.53
2022-08-09T11:03:03.104Z,100470.19
2022-08-09T11:04:56.253Z,100475.13
2022-08-09T11:07:27.258Z,100467.41
2022-08-09T11:10:14.175Z,100478.13
2022-08-09T11:12:45.007Z,100466.38
2022-08-09T11:15:19.326Z,100473.44
2022-08-09T11:18:02.931Z,100480.28
2022-08-09T11:20:41.505Z,100471.44
2022-08-09T11:23:11.060Z,100463.31
2022-08-09T11:25:46.135Z,100460.72
2022-08-09T11:28:38.513Z,100475.13
2022-08-09T11:31:43.345Z,100472.06
2022-08-09T11:34:35.139Z,100468.19
2022-08-09T11:37:03.584Z,100472.88
2022-08-09T11:40:04.980Z,100472.72
2022-08-09T11:43:00.888Z,100460.09
2022-08-09T11:45:37.845Z,100456.19
2022-08-09T11:48:19.473Z,100463.31
2022-08-09T11:52:38.696Z,100449.88
2022-08-09T11:53:59.496Z,100446.81
2022-08-09T11:56:34.396Z,100441.56
2022-08-09T11:59:30.271Z,100434.34
2022-08-09T12:02:18.215Z,100449.81
2022-08-09T12:04:59.135Z,100445.16
2022-08-09T12:07:41.405Z,100441.38
2022-08-09T12:10:14.516Z,100441.03
2022-08-09T12:13:03.799Z,100433.00
2022-08-09T12:15:48.944Z,100415.06
2022-08-09T12:18:29.663Z,100426.41
2022-08-09T12:21:00.710Z,100423.34
2022-08-09T12:23:58.816Z,100411.69
2022-08-09T12:26:19.577Z,100419.28
2022-08-09T12:28:59.248Z,100417.34
2022-08-09T12:31:58.897Z,100434.41
2022-08-09T12:34:41.605Z,100411.53
2022-08-09T12:37:23.363Z,100427.94
2022-08-09T12:40:16.709Z,100435.31
2022-08-09T12:42:44.590Z,100395.28
2022-08-09T12:45:33.557Z,100421.28
2022-08-09T12:47:59.593Z,100429.31
2022-08-09T12:50:27.643Z,100416.63
2022-08-09T12:53:08.100Z,100398.59
2022-08-09T12:56:14.626Z,100406.31
2022-08-09T12:58:29.378Z,100401.66
2022-08-09T13:00:57.712Z,100405.91
2022-08-09T13:03:52.784Z,100409.28
2022-08-09T13:06:43.597Z,100402.72
2022-08-09T13:09:13.710Z,100389.47
2022-08-09T13:11:47.001Z,100379.50
2022-08-09T13:14:41.898Z,100401.44
2022-08-09T13:17:44.150Z,100410.34
2022-08-09T13:20:15.172Z,100395.25
2022-08-09T13:23:06.011Z,100393.34
2022-08-09T13:25:42.129Z,100391.03
2022-08-09T13:28:24.350Z,100382.19
2022-08-09T13:32:15.937Z,100384.03
2022-08-09T13:33:56.706Z,100357.19
2022-08-09T13:36:40.887Z,100367.22
2022-08-09T13:41:19.499Z,100380.50
2022-08-09T13:42:11.895Z,100367.03
2022-08-09T13:44:43.678Z,100389.50
2022-08-09T13:47:26.486Z,100387.31
2022-08-09T13:50:01.667Z,100369.28
2022-08-09T13:52:30.462Z,100389.38
2022-08-09T13:54:59.799Z,100380.16
2022-08-09T13:57:36.021Z,100374.63
2022-08-09T14:00:10.240Z,100370.91
2022-08-09T14:02:42.491Z,100386.94
2022-08-09T14:06:00.033Z,100372.22
2022-08-09T14:08:21.450Z,100349.75
2022-08-09T14:10:50.411Z,100355.84
2022-08-09T14:14:14.696Z,100367.16
2022-08-09T14:16:13.782Z,100351.22
2022-08-09T14:18:45.937Z,100379.72
2022-08-09T14:21:22.721Z,100363.34
2022-08-09T14:23:55.299Z,100339.69
2022-08-09T14:26:31.944Z,100348.72
2022-08-09T14:29:03.238Z,100371.41
2022-08-09T14:31:35.760Z,100356.63
2022-08-09T14:34:08.239Z,100353.13
2022-08-09T14:36:39.807Z,100351.47
2022-08-09T14:39:10.041Z,100356.69
2022-08-09T14:41:40.408Z,100360.56
2022-08-09T14:44:11.065Z,100358.47
2022-08-09T14:47:03.025Z,100351.38
2022-08-09T14:49:26.238Z,100356.72
2022-08-09T14:51:58.609Z,100339.22
2022-08-09T14:54:32.029Z,100352.81
2022-08-09T14:57:00.836Z,100340.03
2022-08-09T14:59:30.737Z,100325.34
2022-08-09T15:01:57.560Z,100349.25
2022-08-09T15:04:25.371Z,100351.34
2022-08-09T15:06:52.441Z,100347.72
2022-08-09T15:09:30.505Z,100356.59
2022-08-09T15:12:09.869Z,100339.47
2022-08-09T15:14:39.087Z,100357.75
2022-08-09T15:17:09.539Z,100344.19
2022-08-09T15:19:37.145Z,100338.34
2022-08-09T15:22:26.035Z,100333.78
2022-08-09T15:24:59.696Z,100347.06
2022-08-09T15:27:30.516Z,100330.03
2022-08-09T15:31:00.671Z,100343.81
2022-08-09T15:33:01.527Z,100349.81
2022-08-09T15:35:44.417Z,100336.41
2022-08-09T15:38:12.247Z,100349.72
2022-08-09T15:40:43.757Z,100330.72
2022-08-09T15:43:13.297Z,100331.03
2022-08-09T15:45:51.680Z,100330.56
2022-08-09T15:48:29.336Z,100351.22
2022-08-09T15:50:58.537Z,100346.09
2022-08-09T15:54:05.730Z,100312.66
2022-08-09T15:56:29.254Z,100334.84
2022-08-09T15:58:58.577Z,100347.75
2022-08-09T16:01:25.820Z,100317.16
2022-08-09T16:03:52.688Z,100315.56
2022-08-09T16:06:32.580Z,100335.16
2022-08-09T16:09:04.898Z,100332.34
2022-08-09T16:11:32.953Z,100314.56
2022-08-09T16:14:06.248Z,100341.34
2022-08-09T16:16:37.214Z,100329.88
2022-08-09T16:19:10.727Z,100332.13
2022-08-09T16:21:41.511Z,100322.91
2022-08-09T16:24:29.638Z,100324.44
2022-08-09T16:26:57.140Z,100336.03
2022-08-09T16:29:37.355Z,100336.38
2022-08-09T16:32:19.292Z,100339.19
2022-08-09T16:34:57.856Z,100332.72
2022-08-09T16:37:55.605Z,100324.16
2022-08-09T16:40:29.773Z,100337.69
2022-08-09T16:43:04.343Z,100320.41
2022-08-09T16:45:31.374Z,100331.16
2022-08-09T16:48:50.500Z,100337.13
2022-08-09T16:50:58.847Z,100302.38
2022-08-09T16:53:26.776Z,100325.00
2022-08-09T16:56:04.843Z,100323.78
2022-08-09T16:58:36.771Z,100330.91
2022-08-09T17:01:04.683Z,100307.72
2022-08-09T17:03:32.363Z,100331.81
2022-08-09T17:06:08.007Z,100330.84
2022-08-09T17:09:02.967Z,100324.84
2022-08-09T17:11:41.928Z,100319.28
2022-08-09T17:14:26.193Z,100317.53
2022-08-09T17:17:01.454Z,100325.09
2022-08-09T17:20:12.614Z,100334.84
2022-08-09T17:22:28.667Z,100332.84
2022-08-09T17:25:10.146Z,100328.91
2022-08-09T17:27:48.856Z,100319.78
2022-08-09T17:30:17.161Z,100333.00
2022-08-09T17:32:46.866Z,100329.66
2022-08-09T17:35:14.062Z,100329.97
2022-08-09T17:38:02.675Z,100338.41
2022-08-09T17:40:30.309Z,100331.44
2022-08-09T17:47:31.918Z,100313.72
2022-08-09T17:50:35.944Z,100337.53
2022-08-09T17:53:04.729Z,100326.06
2022-08-09T17:55:49.456Z,100347.44
2022-08-09T17:58:19.003Z,100344.69
2022-08-09T18:00:49.110Z,100326.72
2022-08-09T18:03:17.925Z,100307.31
2022-08-09T18:05:45.517Z,100351.88
2022-08-09T18:08:22.192Z,100359.47
2022-08-09T18:11:01.968Z,100343.16
2022-08-09T18:13:43.458Z,100361.88
2022-08-09T18:16:29.151Z,100361.81
2022-08-09T18:18:58.188Z,100341.47
2022-08-09T18:21:31.844Z,100351.72
2022-08-09T18:24:11.241Z,100322.59
2022-08-09T18:26:46.764Z,100330.94
2022-08-09T18:30:41.057Z,100359.22
2022-08-09T18:32:07.282Z,100369.69
2022-08-09T18:34:35.643Z,100371.19
2022-08-09T18:37:03.849Z,100360.50
2022-08-09T18:39:32.542Z,100367.13
2022-08-09T18:42:05.423Z,100362.91
2022-08-09T18:44:35.858Z,100378.41
2022-08-09T18:47:15.847Z,100379.56
2022-08-09T18:49:46.953Z,100371.75
2022-08-09T18:52:18.595Z,100368.44
2022-08-09T18:54:53.369Z,100394.00
2022-08-09T18:57:22.181Z,100392.19
2022-08-09T18:59:55.396Z,100386.31
2022-08-09T19:02:32.325Z,100399.41
2022-08-09T19:05:20.617Z,100382.66
2022-08-09T19:08:04.598Z,100399.50
2022-08-09T19:10:38.936Z,100416.41
2022-08-09T19:13:23.258Z,100406.94
2022-08-09T19:16:01.434Z,100384.44
2022-08-09T19:18:34.292Z,100406.72
2022-08-09T19:21:09.674Z,100420.34
2022-08-09T19:24:31.854Z,100418.16
2022-08-09T19:26:31.128Z,100409.50
2022-08-09T19:29:03.621Z,100427.97
2022-08-09T19:31:45.872Z,100432.84
2022-08-09T19:34:21.817Z,100421.41
2022-08-09T19:37:00.064Z,100427.38
2022-08-09T19:39:42.813Z,100431.44
2022-08-09T19:42:14.716Z,100432.22
2022-08-09T19:44:49.559Z,100388.94
2022-08-09T19:47:22.582Z,100433.75
2022-08-09T19:50:10.139Z,100419.56
2022-08-09T19:52:49.804Z,100427.16
2022-08-09T19:55:25.787Z,100423.03
2022-08-09T19:58:06.780Z,100422.16
2022-08-09T20:00:46.669Z,100444.38
2022-08-09T20:04:17.954Z,100439.69
2022-08-09T20:06:04.065Z,100446.91
2022-08-09T20:08:35.000Z,100439.53
2022-08-09T20:11:04.419Z,100441.91
2022-08-09T20:13:37.081Z,100443.44
2022-08-09T20:16:33.646Z,100411.25
2022-08-09T20:19:42.263Z,100405.44
2022-08-09T20:21:40.691Z,100443.03
2022-08-09T20:24:29.773Z,100444.00
2022-08-09T20:27:07.863Z,100441.53
2022-08-09T20:29:38.344Z,100440.41
2022-08-09T20:32:29.796Z,100447.94
2022-08-09T20:34:55.060Z,100437.59
2022-08-09T20:37:22.782Z,100424.72
2022-08-09T20:40:16.499Z,100443.50
2022-08-09T20:42:37.743Z,100446.13
2022-08-09T20:45:59.345Z,100441.97
2022-08-09T20:47:52.731Z,100445.69
2022-08-09T20:50:46.691Z,100444.00
2022-08-09T20:53:22.721Z,100451.38
2022-08-09T20:56:02.422Z,100459.75
2022-08-09T20:58:33.337Z,100423.13
2022-08-09T21:01:32.505Z,100457.16
2022-08-09T21:05:49.069Z,100458.16
2022-08-09T21:06:42.569Z,100459.66
2022-08-09T21:09:13.701Z,100450.91
2022-08-09T21:14:30.876Z,100459.19
2022-08-09T21:16:59.536Z,100452.44
2022-08-09T21:20:18.395Z,100441.22
2022-08-09T21:22:35.985Z,100460.38
2022-08-09T21:25:25.457Z,100463.41
2022-08-09T21:27:53.333Z,100471.59
2022-08-09T21:30:23.237Z,100463.56
2022-08-09T21:33:12.593Z,100467.75
2022-08-09T21:35:51.282Z,100465.19
2022-08-09T21:38:30.844Z,100466.34
2022-08-09T21:40:59.444Z,100473.41
2022-08-09T21:43:46.543Z,100468.47
2022-08-09T21:46:13.749Z,100470.78
2022-08-09T21:48:42.662Z,100464.53
2022-08-09T21:51:24.477Z,100445.88
2022-08-09T21:54:02.915Z,100445.88
2022-08-09T21:56:43.012Z,100474.03
2022-08-09T21:59:11.649Z,100468.16
2022-08-09T22:02:01.100Z,100470.34
2022-08-09T22:04:57.399Z,100442.59
2022-08-09T22:07:35.554Z,100459.97
2022-08-09T22:10:06.122Z,100461.44
2022-08-09T22:12:33.866Z,100463.47
2022-08-09T22:15:00.935Z,100441.53
2022-08-09T22:17:28.155Z,100462.00
2022-08-09T22:20:00.608Z,100481.00
2022-08-09T22:22:30.709Z,100454.53
2022-08-09T22:26:04.599Z,100466.59
2022-08-09T22:27:47.986Z,100460.63
2022-08-09T22:30:16.050Z,100474.03
2022-08-09T22:32:53.456Z,100483.28
2022-08-09T22:36:01.533Z,100482.41
2022-08-09T22:38:08.003Z,100477.06
2022-08-09T22:40:35.549Z,100478.47
2022-08-09T22:43:08.711Z,100478.81
2022-08-09T22:48:11.603Z,100479.19
2022-08-09T22:48:35.026Z,100467.09
2022-08-09T22:51:10.620Z,100482.09
2022-08-09T22:54:02.562Z,100452.19
2022-08-09T22:56:33.898Z,100479.38
2022-08-09T22:59:05.958Z,100473.88
2022-08-09T23:01:50.933Z,100461.66
2022-08-09T23:04:18.196Z,100459.41
2022-08-09T23:07:14.101Z,100468.72
2022-08-09T23:09:43.232Z,100472.47
2022-08-09T23:12:10.131Z,100475.34
2022-08-09T23:14:39.242Z,100478.78
2022-08-09T23:17:10.526Z,100475.19
2022-08-09T23:20:07.216Z,100486.66
2022-08-09T23:22:24.447Z,100480.13
2022-08-09T23:24:51.273Z,100489.38
2022-08-09T23:27:18.018Z,100459.56
2022-08-09T23:29:44.825Z,100478.13
2022-08-09T23:32:12.094Z,100477.06
2022-08-09T23:34:39.203Z,100485.75
2022-08-09T23:37:07.771Z,100490.50
2022-08-09T23:39:34.611Z,100482.88
2022-08-09T23:42:01.409Z,100485.50
2022-08-09T23:44:28.327Z,100494.59
2022-08-09T23:46:57.291Z,100489.44
2022-08-09T23:49:25.774Z,100472.47
2022-08-09T23:51:53.421Z,100484.78
2022-08-09T23:54:21.308Z,100480.66
2022-08-09T23:56:56.300Z,100480.09
2022-08-09T23:59:25.577Z,100478.16
